Time;durP1;ratioP1;P1;durP2;ratioP2;P2;SDS_P1;SDS_P2;PMS_P1;PMS_P2;Temp;Humidity;BMP_temperature;BMP_pressure;BME280_temperature;BME280_humidity;BME280_pressure;Samples;Min_cycle;Max_cycle;Signal;HPM_P1;HPM_P2
2024/03/03 00:02:09;;;;;;;19.52;10.40;;;;;;;-145.63;100.00;61273.97;5016506;28;20038;-65
2024/03/03 00:04:36;;;;;;;18.30;10.43;;;;;;;-145.63;100.00;61273.97;5016085;28;20080;-63
2024/03/03 00:07:02;;;;;;;16.52;9.60;;;;;;;-145.63;100.00;61273.97;5014156;28;20033;-64
2024/03/03 00:09:28;;;;;;;17.50;9.02;;;;;;;-145.63;100.00;61273.97;5016646;28;20037;-65
2024/03/03 00:11:53;;;;;;;18.35;9.68;;;;;;;-145.63;100.00;61273.97;5020350;28;20025;-65
2024/03/03 00:14:21;;;;;;;15.98;9.50;;;;;;;-145.63;100.00;61273.97;5016861;28;20033;-65
2024/03/03 00:16:47;;;;;;;20.88;10.57;;;;;;;-145.63;100.00;61273.97;5016396;28;20061;-65
2024/03/03 00:19:12;;;;;;;20.35;9.80;;;;;;;-145.63;100.00;61273.97;5015449;28;20080;-65
2024/03/03 00:21:38;;;;;;;17.00;9.95;;;;;;;-145.63;100.00;61273.97;5015816;28;20033;-65
2024/03/03 00:24:05;;;;;;;20.67;10.98;;;;;;;-145.63;100.00;61273.97;5015649;28;20037;-64
2024/03/03 00:26:33;;;;;;;20.35;10.52;;;;;;;-145.63;100.00;61273.97;5016529;28;20522;-64
2024/03/03 00:28:59;;;;;;;24.73;10.95;;;;;;;-145.63;100.00;61273.97;5022810;28;20056;-64
2024/03/03 00:31:25;;;;;;;17.30;11.40;;;;;;;-145.63;100.00;61273.97;5016037;28;20056;-64
2024/03/03 00:33:50;;;;;;;22.48;11.52;;;;;;;-145.63;100.00;61273.97;5015850;28;20054;-64
2024/03/03 00:36:16;;;;;;;21.33;11.60;;;;;;;-145.63;100.00;61273.97;5016029;28;20112;-64
2024/03/03 00:38:41;;;;;;;23.63;11.27;;;;;;;-145.63;100.00;61273.97;5013366;28;20050;-65
2024/03/03 00:41:07;;;;;;;19.38;10.73;;;;;;;-145.63;100.00;61273.97;5015226;28;20045;-64
2024/03/03 00:43:32;;;;;;;22.83;11.73;;;;;;;-145.63;100.00;61273.97;5015465;28;20167;-65
2024/03/03 00:45:58;;;;;;;24.42;11.73;;;;;;;-145.63;100.00;61273.97;5014217;28;20072;-64
2024/03/03 00:48:24;;;;;;;19.92;12.63;;;;;;;-145.63;100.00;61273.97;5019100;28;20037;-63
2024/03/03 00:50:49;;;;;;;24.17;12.65;;;;;;;-145.63;100.00;61273.97;5013706;28;20040;-63
2024/03/03 00:53:15;;;;;;;22.55;12.18;;;;;;;-145.63;100.00;61273.97;5014593;28;20030;-65
2024/03/03 00:55:51;;;;;;;21.35;11.57;;;;;;;-145.63;100.00;61273.97;5001368;28;20034;-65
2024/03/03 00:58:17;;;;;;;21.05;11.98;;;;;;;-145.63;100.00;61273.97;5015112;28;20038;-64
2024/03/03 01:00:42;;;;;;;23.17;12.65;;;;;;;-145.63;100.00;61273.97;5019454;28;20041;-65
2024/03/03 01:03:08;;;;;;;22.77;12.60;;;;;;;-145.63;100.00;61273.97;5013890;28;20478;-65
2024/03/03 01:05:34;;;;;;;29.08;13.57;;;;;;;-145.63;100.00;61273.97;5014550;28;20041;-65
2024/03/03 01:08:00;;;;;;;23.60;12.73;;;;;;;-145.63;100.00;61273.97;5015032;28;20467;-66
2024/03/03 01:10:26;;;;;;;28.70;13.70;;;;;;;-145.63;100.00;61273.97;5001492;28;20140;-65
2024/03/03 01:12:51;;;;;;;31.25;14.35;;;;;;;-145.63;100.00;61273.97;5014829;28;20038;-64
2024/03/03 01:15:17;;;;;;;31.63;13.70;;;;;;;-145.63;100.00;61273.97;5014961;28;20095;-65
2024/03/03 01:17:44;;;;;;;30.77;13.95;;;;;;;-145.63;100.00;61273.97;5014939;28;20095;-65
2024/03/03 01:20:11;;;;;;;25.35;15.32;;;;;;;-145.63;100.00;61273.97;5013874;28;20392;-63
2024/03/03 01:22:37;;;;;;;25.85;14.88;;;;;;;-145.63;100.00;61273.97;5014796;28;20196;-65
2024/03/03 01:25:03;;;;;;;29.23;15.27;;;;;;;-145.63;100.00;61273.97;5010534;28;20030;-64
2024/03/03 01:27:30;;;;;;;24.15;14.13;;;;;;;-145.63;100.00;61273.97;5014341;28;20065;-65
2024/03/03 01:29:55;;;;;;;25.60;15.20;;;;;;;-145.63;100.00;61273.97;5014690;28;20464;-65
2024/03/03 01:32:24;;;;;;;23.95;14.15;;;;;;;-145.63;100.00;61273.97;5014555;28;20184;-63
2024/03/03 01:34:50;;;;;;;26.95;13.15;;;;;;;-145.63;100.00;61273.97;5013762;28;20045;-64
2024/03/03 01:37:17;;;;;;;24.77;13.55;;;;;;;-145.63;100.00;61273.97;5014638;28;20036;-64
2024/03/03 01:39:45;;;;;;;24.98;13.45;;;;;;;-145.63;100.00;61273.97;5013923;28;20064;-64
2024/03/03 01:42:11;;;;;;;28.42;13.18;;;;;;;-145.63;100.00;61273.97;5014843;28;20029;-64
2024/03/03 01:44:36;;;;;;;24.77;13.15;;;;;;;-145.63;100.00;61273.97;5014118;28;20041;-64
2024/03/03 01:47:03;;;;;;;27.42;12.95;;;;;;;-145.63;100.00;61273.97;5014357;28;20085;-64
2024/03/03 01:49:31;;;;;;;29.35;13.40;;;;;;;-145.63;100.00;61273.97;5014498;28;20622;-63
2024/03/03 01:51:58;;;;;;;23.35;12.73;;;;;;;-145.63;100.00;61273.97;5012929;28;20104;-64
2024/03/03 01:54:24;;;;;;;21.23;12.38;;;;;;;-145.63;100.00;61273.97;5014176;28;20041;-64
2024/03/03 01:56:50;;;;;;;26.58;12.65;;;;;;;-145.63;100.00;61273.97;5014226;28;20076;-64
2024/03/03 01:59:16;;;;;;;26.55;12.40;;;;;;;-145.63;100.00;61273.97;5014340;28;20025;-63
2024/03/03 02:01:42;;;;;;;19.10;11.32;;;;;;;-145.63;100.00;61273.97;5010510;28;20495;-65
2024/03/03 02:04:09;;;;;;;19.85;11.10;;;;;;;-145.63;100.00;61273.97;5013473;28;20357;-64
2024/03/03 02:06:38;;;;;;;22.88;10.77;;;;;;;-145.63;100.00;61273.97;5013299;28;20119;-64
2024/03/03 02:09:05;;;;;;;20.58;11.82;;;;;;;-145.63;100.00;61273.97;5009323;28;20046;-63
2024/03/03 02:11:31;;;;;;;17.35;10.90;;;;;;;-145.63;100.00;61273.97;5005270;28;20034;-63
2024/03/03 02:13:57;;;;;;;23.02;11.70;;;;;;;-145.63;100.00;61273.97;4994975;28;20034;-63
2024/03/03 02:16:23;;;;;;;18.05;11.00;;;;;;;-145.63;100.00;61273.97;5008530;28;20030;-64
2024/03/03 02:18:48;;;;;;;19.00;11.18;;;;;;;-145.63;100.00;61273.97;5013916;28;20021;-65
2024/03/03 02:21:14;;;;;;;16.83;10.50;;;;;;;-145.63;100.00;61273.97;5012791;28;20026;-65
2024/03/03 02:23:40;;;;;;;20.80;11.23;;;;;;;-145.63;100.00;61273.97;5011559;28;20042;-65
2024/03/03 02:26:05;;;;;;;22.63;10.05;;;;;;;-145.63;100.00;61273.97;5014188;28;20057;-64
2024/03/03 02:28:31;;;;;;;24.58;10.93;;;;;;;-145.63;100.00;61273.97;5013821;28;20107;-64
2024/03/03 02:30:57;;;;;;;19.63;10.73;;;;;;;-145.63;100.00;61273.97;5008327;28;20061;-64
2024/03/03 02:33:22;;;;;;;27.77;11.40;;;;;;;-145.63;100.00;61273.97;5014074;28;20438;-65
2024/03/03 02:35:48;;;;;;;20.63;11.05;;;;;;;-145.63;100.00;61273.97;5013307;28;20076;-65
2024/03/03 02:38:14;;;;;;;27.60;11.75;;;;;;;-145.63;100.00;61273.97;5013809;28;20038;-65
2024/03/03 02:40:39;;;;;;;19.33;11.23;;;;;;;-145.63;100.00;61273.97;5013349;28;20030;-64
2024/03/03 02:43:07;;;;;;;21.63;11.20;;;;;;;-145.63;100.00;61273.97;5012361;28;20088;-64
2024/03/03 02:45:33;;;;;;;28.73;13.50;;;;;;;-145.63;100.00;61273.97;5008791;28;20030;-65
2024/03/03 02:47:58;;;;;;;27.90;12.95;;;;;;;-145.63;100.00;61273.97;5013432;28;20407;-65
2024/03/03 02:50:24;;;;;;;25.58;11.95;;;;;;;-145.63;100.00;61273.97;5012978;28;20065;-65
2024/03/03 02:52:50;;;;;;;22.35;11.30;;;;;;;-145.63;100.00;61273.97;5012168;28;20022;-65
2024/03/03 02:55:15;;;;;;;22.80;11.75;;;;;;;-145.63;100.00;61273.97;5000369;28;20097;-64
2024/03/03 02:57:41;;;;;;;25.50;11.20;;;;;;;-145.63;100.00;61273.97;5013374;28;20045;-64
2024/03/03 03:00:11;;;;;;;21.20;11.60;;;;;;;-145.63;100.00;61273.97;5012787;28;20034;-64
2024/03/03 03:02:37;;;;;;;22.92;10.77;;;;;;;-145.63;100.00;61273.97;5006269;28;20506;-64
2024/03/03 03:05:04;;;;;;;22.65;10.60;;;;;;;-145.63;100.00;61273.97;5013358;28;20120;-64
2024/03/03 03:07:29;;;;;;;24.20;11.23;;;;;;;-145.63;100.00;61273.97;5011203;28;20041;-65
2024/03/03 03:09:55;;;;;;;22.98;11.82;;;;;;;-145.63;100.00;61273.97;5013177;28;20030;-64
2024/03/03 03:12:21;;;;;;;23.42;12.13;;;;;;;-145.63;100.00;61273.97;5013514;28;20034;-65
2024/03/03 03:14:46;;;;;;;17.98;11.80;;;;;;;-145.63;100.00;61273.97;5013152;28;20078;-66
2024/03/03 03:17:12;;;;;;;20.58;11.00;;;;;;;-145.63;100.00;61273.97;5011762;28;20046;-65
2024/03/03 03:19:37;;;;;;;26.60;11.00;;;;;;;-145.63;100.00;61273.97;5013822;28;20091;-65
2024/03/03 03:22:03;;;;;;;20.70;11.57;;;;;;;-145.63;100.00;61273.97;5012815;28;20098;-67
2024/03/03 03:24:29;;;;;;;18.42;11.23;;;;;;;-145.63;100.00;61273.97;5019877;28;20029;-65
2024/03/03 03:26:56;;;;;;;22.73;11.65;;;;;;;-145.63;100.00;61273.97;5016436;28;20037;-65
2024/03/03 03:29:21;;;;;;;24.63;12.30;;;;;;;-145.63;100.00;61273.97;5013077;28;20034;-65
2024/03/03 03:31:47;;;;;;;27.33;11.80;;;;;;;-145.63;100.00;61273.97;5012819;28;20026;-65
2024/03/03 03:34:12;;;;;;;19.17;11.45;;;;;;;-145.63;100.00;61273.97;5012900;28;20177;-65
2024/03/03 03:36:39;;;;;;;22.42;10.60;;;;;;;-145.63;100.00;61273.97;5012481;28;20108;-67
2024/03/03 03:39:12;;;;;;;28.10;12.27;;;;;;;-145.63;100.00;61273.97;5011378;28;20050;-66
2024/03/03 03:41:50;;;;;;;22.02;12.18;;;;;;;-145.63;100.00;61273.97;5012668;28;20041;-65
2024/03/03 03:44:19;;;;;;;21.88;12.43;;;;;;;-145.63;100.00;61273.97;5006882;28;20198;-65
2024/03/03 03:46:45;;;;;;;22.25;11.82;;;;;;;-145.63;100.00;61273.97;5012235;28;20046;-66
2024/03/03 03:49:12;;;;;;;23.15;11.63;;;;;;;-145.63;100.00;61273.97;5006496;28;20044;-65
2024/03/03 03:51:38;;;;;;;23.45;12.60;;;;;;;-145.63;100.00;61273.97;5004113;28;20107;-66
2024/03/03 03:54:05;;;;;;;21.75;13.70;;;;;;;-145.63;100.00;61273.97;5007848;28;20046;-66
2024/03/03 03:56:31;;;;;;;23.58;13.38;;;;;;;-145.63;100.00;61273.97;5011210;28;20045;-66
2024/03/03 03:58:58;;;;;;;22.23;12.82;;;;;;;-145.63;100.00;61273.97;5007315;28;20037;-65
2024/03/03 04:01:24;;;;;;;31.52;13.32;;;;;;;-145.63;100.00;61273.97;5012705;28;20030;-65
2024/03/03 04:03:50;;;;;;;22.17;12.77;;;;;;;-145.63;100.00;61273.97;5011616;28;20387;-66
2024/03/03 04:06:16;;;;;;;23.88;12.50;;;;;;;-145.63;100.00;61273.97;5007722;28;20041;-66
2024/03/03 04:08:41;;;;;;;24.20;12.90;;;;;;;-145.63;100.00;61273.97;4995718;28;20037;-65
2024/03/03 04:11:07;;;;;;;23.73;12.20;;;;;;;-145.63;100.00;61273.97;5012002;28;20029;-67
2024/03/03 04:13:33;;;;;;;22.40;12.98;;;;;;;-145.63;100.00;61273.97;5005207;28;20038;-66
2024/03/03 04:15:59;;;;;;;22.50;12.70;;;;;;;-145.63;100.00;61273.97;5012328;28;20075;-65
2024/03/03 04:18:25;;;;;;;24.80;12.15;;;;;;;-145.63;100.00;61273.97;5018891;28;20029;-66
2024/03/03 04:20:52;;;;;;;34.67;14.18;;;;;;;-145.63;100.00;61273.97;5012170;28;20029;-65
2024/03/03 04:23:19;;;;;;;19.58;12.52;;;;;;;-145.63;100.00;61273.97;5011098;28;20038;-65
2024/03/03 04:25:44;;;;;;;24.83;12.50;;;;;;;-145.63;100.00;61273.97;5014517;28;20034;-64
2024/03/03 04:28:10;;;;;;;28.15;13.70;;;;;;;-145.63;100.00;61273.97;5004211;28;20103;-65
2024/03/03 04:30:36;;;;;;;25.85;14.15;;;;;;;-145.63;100.00;61273.97;5010184;28;20056;-64
2024/03/03 04:33:02;;;;;;;22.15;13.55;;;;;;;-145.63;100.00;61273.97;5015596;28;20050;-66
2024/03/03 04:35:28;;;;;;;28.48;12.55;;;;;;;-145.63;100.00;61273.97;5016080;28;20042;-65
2024/03/03 04:37:54;;;;;;;23.02;12.98;;;;;;;-145.63;100.00;61273.97;5015448;28;20388;-65
2024/03/03 04:40:19;;;;;;;25.45;12.75;;;;;;;-145.63;100.00;61273.97;5015602;28;20049;-67
2024/03/03 04:42:46;;;;;;;23.58;13.38;;;;;;;-145.63;100.00;61273.97;5016202;28;20044;-65
2024/03/03 04:45:11;;;;;;;25.25;13.63;;;;;;;-145.63;100.00;61273.97;5014647;28;20120;-66
2024/03/03 04:47:37;;;;;;;23.85;13.73;;;;;;;-145.63;100.00;61273.97;5016083;28;20514;-65
2024/03/03 04:50:03;;;;;;;23.67;13.35;;;;;;;-145.63;100.00;61273.97;5029482;28;20052;-66
2024/03/03 04:52:29;;;;;;;23.63;12.55;;;;;;;-145.63;100.00;61273.97;5010469;28;20133;-64
2024/03/03 04:54:54;;;;;;;24.63;14.07;;;;;;;-145.63;100.00;61273.97;5009013;28;20061;-65
2024/03/03 04:57:20;;;;;;;21.02;13.48;;;;;;;-145.63;100.00;61273.97;5015529;28;20030;-65
2024/03/03 04:59:45;;;;;;;24.73;13.15;;;;;;;-145.63;100.00;61273.97;5007000;28;20464;-64
2024/03/03 05:02:11;;;;;;;24.50;13.48;;;;;;;-145.63;100.00;61273.97;5015738;28;20409;-64
2024/03/03 05:04:37;;;;;;;25.45;13.25;;;;;;;-145.63;100.00;61273.97;5016151;28;20038;-66
2024/03/03 05:07:03;;;;;;;30.05;13.45;;;;;;;-145.63;100.00;61273.97;5013479;28;20058;-65
2024/03/03 05:09:28;;;;;;;32.85;13.90;;;;;;;-145.63;100.00;61273.97;5022140;28;20045;-64
2024/03/03 05:11:54;;;;;;;24.65;13.98;;;;;;;-145.63;100.00;61273.97;5019052;28;20025;-64
2024/03/03 05:14:19;;;;;;;28.70;13.40;;;;;;;-145.63;100.00;61273.97;5014942;28;20391;-65
2024/03/03 05:16:45;;;;;;;24.27;12.32;;;;;;;-145.63;100.00;61273.97;5013501;28;20064;-67
2024/03/03 05:19:11;;;;;;;22.55;12.35;;;;;;;-145.63;100.00;61273.97;5002230;28;20074;-66
2024/03/03 05:21:36;;;;;;;23.52;12.75;;;;;;;-145.63;100.00;61273.97;5007342;28;20030;-66
2024/03/03 05:24:02;;;;;;;21.92;11.77;;;;;;;-145.63;100.00;61273.97;5012711;28;20095;-64
2024/03/03 05:26:28;;;;;;;21.83;11.80;;;;;;;-145.63;100.00;61273.97;5005379;28;20041;-65
2024/03/03 05:28:54;;;;;;;26.02;11.55;;;;;;;-145.63;100.00;61273.97;5015414;28;20107;-66
2024/03/03 05:31:19;;;;;;;24.95;11.55;;;;;;;-145.63;100.00;61273.97;5012086;28;20095;-66
2024/03/03 05:33:45;;;;;;;23.70;11.45;;;;;;;-145.63;100.00;61273.97;5015172;28;20050;-65
2024/03/03 05:36:12;;;;;;;19.55;11.55;;;;;;;-145.63;100.00;61273.97;5015061;28;20268;-64
2024/03/03 05:38:41;;;;;;;19.35;10.80;;;;;;;-145.63;100.00;61273.97;5015230;28;20045;-65
2024/03/03 05:41:06;;;;;;;25.92;11.57;;;;;;;-145.63;100.00;61273.97;5014477;28;20029;-65
2024/03/03 05:43:32;;;;;;;26.52;12.02;;;;;;;-145.63;100.00;61273.97;5015355;28;20036;-66
2024/03/03 05:45:57;;;;;;;22.67;11.15;;;;;;;-145.63;100.00;61273.97;5011181;28;20029;-65
2024/03/03 05:48:23;;;;;;;21.27;10.90;;;;;;;-145.63;100.00;61273.97;5014947;28;20041;-66
2024/03/03 05:50:49;;;;;;;18.70;11.32;;;;;;;-145.63;100.00;61273.97;5013890;28;20030;-65
2024/03/03 05:53:14;;;;;;;26.70;11.13;;;;;;;-145.63;100.00;61273.97;5014170;28;20037;-65
2024/03/03 05:55:40;;;;;;;20.23;10.63;;;;;;;-145.63;100.00;61273.97;5005960;28;20117;-66
2024/03/03 05:58:05;;;;;;;18.67;11.13;;;;;;;-145.63;100.00;61273.97;5003290;28;20034;-66
2024/03/03 06:00:31;;;;;;;21.88;11.60;;;;;;;-145.63;100.00;61273.97;5000463;28;20053;-65
2024/03/03 06:02:57;;;;;;;14.80;10.55;;;;;;;-145.63;100.00;61273.97;5012230;28;20030;-65
2024/03/03 06:05:22;;;;;;;20.60;11.05;;;;;;;-145.63;100.00;61273.97;5007903;28;20030;-66
2024/03/03 06:07:48;;;;;;;25.55;11.98;;;;;;;-145.63;100.00;61273.97;5012986;28;20051;-65
2024/03/03 06:10:14;;;;;;;20.88;10.93;;;;;;;-145.63;100.00;61273.97;5014173;28;20053;-65
2024/03/03 06:12:39;;;;;;;24.75;10.95;;;;;;;-145.63;100.00;61273.97;5020510;28;20083;-65
2024/03/03 06:15:05;;;;;;;22.60;10.85;;;;;;;-145.63;100.00;61273.97;5012624;28;20034;-66
2024/03/03 06:17:31;;;;;;;19.70;10.65;;;;;;;-145.63;100.00;61273.97;5013469;28;20037;-65
2024/03/03 06:19:56;;;;;;;21.85;10.88;;;;;;;-145.63;100.00;61273.97;4996791;28;20615;-65
2024/03/03 06:22:22;;;;;;;17.83;10.82;;;;;;;-145.63;100.00;61273.97;5011798;28;20034;-65
2024/03/03 06:24:47;;;;;;;23.13;11.18;;;;;;;-145.63;100.00;61273.97;5009728;28;20049;-64
2024/03/03 06:27:13;;;;;;;19.85;11.45;;;;;;;-145.63;100.00;61273.97;5009515;28;20050;-65
2024/03/03 06:29:39;;;;;;;21.42;11.13;;;;;;;-145.63;100.00;61273.97;5014492;28;20120;-65
2024/03/03 06:32:04;;;;;;;26.90;10.95;;;;;;;-145.63;100.00;61273.97;5014063;28;20344;-65
2024/03/03 06:34:30;;;;;;;18.20;10.20;;;;;;;-145.63;100.00;61273.97;5013694;28;20066;-65
2024/03/03 06:36:55;;;;;;;23.23;11.32;;;;;;;-145.63;100.00;61273.97;5013296;28;20040;-66
2024/03/03 06:39:21;;;;;;;23.48;10.77;;;;;;;-145.63;100.00;61273.97;5013999;28;20034;-65
2024/03/03 06:41:47;;;;;;;21.15;10.88;;;;;;;-145.63;100.00;61273.97;5013663;28;20092;-65
2024/03/03 06:44:16;;;;;;;21.13;11.02;;;;;;;-145.63;100.00;61273.97;5013672;28;20037;-65
2024/03/03 06:46:44;;;;;;;16.33;9.77;;;;;;;-145.63;100.00;61273.97;5013029;28;20033;-67
2024/03/03 06:49:11;;;;;;;18.88;9.48;;;;;;;-145.63;100.00;61273.97;5011042;28;20476;-66
2024/03/03 06:51:37;;;;;;;23.52;10.25;;;;;;;-145.63;100.00;61273.97;5012409;28;20164;-65
2024/03/03 06:54:03;;;;;;;20.00;9.75;;;;;;;-145.63;100.00;61273.97;5013244;28;20141;-66
2024/03/03 06:56:29;;;;;;;16.52;9.73;;;;;;;-145.63;100.00;61273.97;5013668;28;20064;-67
2024/03/03 06:58:55;;;;;;;18.33;9.38;;;;;;;-145.63;100.00;61273.97;5013272;28;20030;-67
2024/03/03 07:01:20;;;;;;;18.63;9.23;;;;;;;-145.63;100.00;61273.97;5011406;28;20022;-67
2024/03/03 07:06:23;;;;;;;15.43;9.15;;;;;;;-145.63;100.00;61273.97;5003335;28;20084;-67
2024/03/03 07:08:49;;;;;;;22.83;10.18;;;;;;;-145.63;100.00;61273.97;5011387;28;20029;-67
2024/03/03 07:11:15;;;;;;;16.25;9.52;;;;;;;-145.63;100.00;61273.97;5011997;28;20030;-67
2024/03/03 07:13:40;;;;;;;23.63;10.65;;;;;;;-145.63;100.00;61273.97;5004028;28;20121;-66
2024/03/03 07:16:07;;;;;;;20.00;9.80;;;;;;;-145.63;100.00;61273.97;5010241;28;20038;-67
2024/03/03 07:18:32;;;;;;;16.55;9.18;;;;;;;-145.63;100.00;61273.97;5010071;28;20471;-65
2024/03/03 07:20:58;;;;;;;14.65;9.15;;;;;;;-145.63;100.00;61273.97;5012897;28;20033;-65
2024/03/03 07:23:23;;;;;;;20.17;9.15;;;;;;;-145.63;100.00;61273.97;5013499;28;20109;-63
2024/03/03 07:25:49;;;;;;;14.15;8.82;;;;;;;-145.63;100.00;61273.97;5012756;28;20372;-63
2024/03/03 07:28:15;;;;;;;17.15;9.25;;;;;;;-145.63;100.00;61273.97;5024667;28;20036;-64
2024/03/03 07:30:40;;;;;;;18.13;8.77;;;;;;;-145.63;100.00;61273.97;5012269;28;20033;-64
2024/03/03 07:33:06;;;;;;;16.70;9.20;;;;;;;-145.63;100.00;61273.97;5012549;28;20137;-67
2024/03/03 07:35:32;;;;;;;16.40;9.52;;;;;;;-145.63;100.00;61273.97;5012323;28;20053;-65
2024/03/03 07:37:57;;;;;;;17.92;8.63;;;;;;;-145.63;100.00;61273.97;5011112;28;20026;-65
2024/03/03 07:40:23;;;;;;;19.70;9.05;;;;;;;-145.63;100.00;61273.97;5011989;28;20030;-64
2024/03/03 07:42:48;;;;;;;18.88;8.52;;;;;;;-145.63;100.00;61273.97;5012273;28;20034;-65
2024/03/03 07:45:14;;;;;;;17.67;8.75;;;;;;;-145.63;100.00;61273.97;5014097;28;20041;-64
2024/03/03 07:47:39;;;;;;;18.27;8.45;;;;;;;-145.63;100.00;61273.97;5013053;28;20026;-65
2024/03/03 07:50:06;;;;;;;18.10;8.18;;;;;;;-145.63;100.00;61273.97;5011913;28;20030;-64
2024/03/03 07:52:31;;;;;;;14.95;7.78;;;;;;;-145.63;100.00;61273.97;5011713;28;20034;-65
2024/03/03 07:54:57;;;;;;;14.20;8.13;;;;;;;-145.63;100.00;61273.97;5010130;28;20084;-67
2024/03/03 07:57:22;;;;;;;17.00;8.40;;;;;;;-145.63;100.00;61273.97;5008891;28;20049;-64
2024/03/03 07:59:48;;;;;;;15.63;8.82;;;;;;;-145.63;100.00;61273.97;5011186;28;20423;-67
2024/03/03 08:02:13;;;;;;;19.25;8.93;;;;;;;-145.63;100.00;61273.97;5016284;28;20096;-66
2024/03/03 08:04:40;;;;;;;13.35;8.63;;;;;;;-145.63;100.00;61273.97;5003485;28;20033;-69
2024/03/03 08:07:05;;;;;;;17.35;8.85;;;;;;;-145.63;100.00;61273.97;5016319;28;20115;-63
2024/03/03 08:09:31;;;;;;;16.50;8.77;;;;;;;-145.63;100.00;61273.97;5011917;28;20058;-64
2024/03/03 08:11:57;;;;;;;13.10;8.30;;;;;;;-145.63;100.00;61273.97;5014145;28;20699;-65
2024/03/03 08:14:22;;;;;;;13.95;8.30;;;;;;;-145.63;100.00;61273.97;5015862;28;20033;-65
2024/03/03 08:16:48;;;;;;;16.38;8.73;;;;;;;-145.63;100.00;61273.97;5016092;28;20036;-67
2024/03/03 08:19:13;;;;;;;17.02;8.90;;;;;;;-145.63;100.00;61273.97;5015898;28;20026;-68
2024/03/03 08:21:39;;;;;;;16.38;8.85;;;;;;;-145.63;100.00;61273.97;5016236;28;20530;-66
2024/03/03 08:24:05;;;;;;;13.02;8.57;;;;;;;-145.63;100.00;61273.97;5014858;28;20070;-65
2024/03/03 08:26:30;;;;;;;14.73;7.93;;;;;;;-145.63;100.00;61273.97;5008496;28;20038;-64
2024/03/03 08:28:56;;;;;;;14.38;8.02;;;;;;;-145.63;100.00;61273.97;5016160;28;20026;-63
2024/03/03 08:31:21;;;;;;;14.23;8.52;;;;;;;-145.63;100.00;61273.97;5012665;28;20034;-63
2024/03/03 08:33:48;;;;;;;13.82;9.50;;;;;;;-145.63;100.00;61273.97;5007252;28;20376;-63
2024/03/03 08:36:14;;;;;;;14.75;8.40;;;;;;;-145.63;100.00;61273.97;5015796;28;20056;-65
2024/03/03 08:38:39;;;;;;;17.52;8.85;;;;;;;-145.63;100.00;61273.97;5016174;28;20468;-66
2024/03/03 08:41:05;;;;;;;12.02;8.50;;;;;;;-145.63;100.00;61273.97;5014624;28;20699;-65
2024/03/03 08:43:31;;;;;;;11.68;8.35;;;;;;;-145.63;100.00;61273.97;5010937;28;20064;-65
2024/03/03 08:45:56;;;;;;;15.10;7.50;;;;;;;-145.63;100.00;61273.97;5014074;28;20117;-64
2024/03/03 08:48:24;;;;;;;17.00;7.97;;;;;;;-145.63;100.00;61273.97;5016350;28;20046;-65
2024/03/03 08:50:50;;;;;;;16.02;8.40;;;;;;;-145.63;100.00;61273.97;5014965;28;20038;-64
2024/03/03 08:53:16;;;;;;;15.88;8.75;;;;;;;-145.63;100.00;61273.97;5016644;28;20080;-65
2024/03/03 08:55:41;;;;;;;18.55;8.63;;;;;;;-145.63;100.00;61273.97;5006035;28;20506;-65
2024/03/03 08:58:07;;;;;;;12.15;7.72;;;;;;;-145.63;100.00;61273.97;5015275;28;20037;-66
2024/03/03 09:00:33;;;;;;;12.05;7.95;;;;;;;-145.63;100.00;61273.97;5004191;28;20415;-65
2024/03/03 09:02:59;;;;;;;20.00;8.95;;;;;;;-145.63;100.00;61273.97;5012285;28;20041;-64
2024/03/03 09:05:26;;;;;;;11.77;7.90;;;;;;;-145.63;100.00;61273.97;4998171;28;20088;-64
2024/03/03 09:07:53;;;;;;;13.40;7.80;;;;;;;-145.63;100.00;61273.97;5014590;28;20025;-66
2024/03/03 09:10:19;;;;;;;15.30;7.68;;;;;;;-145.63;100.00;61273.97;5015114;28;20061;-66
2024/03/03 09:12:45;;;;;;;12.45;7.88;;;;;;;-145.63;100.00;61273.97;5014101;28;20411;-68
2024/03/03 09:15:10;;;;;;;14.75;7.05;;;;;;;-145.63;100.00;61273.97;5012228;28;20038;-66
2024/03/03 09:17:36;;;;;;;11.05;7.07;;;;;;;-145.63;100.00;61273.97;5014412;28;20038;-65
2024/03/03 09:20:05;;;;;;;15.02;7.60;;;;;;;-145.63;100.00;61273.97;5012180;28;20026;-66
2024/03/03 09:22:31;;;;;;;11.18;7.68;;;;;;;-145.63;100.00;61273.97;5014378;28;20036;-66
2024/03/03 09:24:57;;;;;;;12.27;6.97;;;;;;;-145.63;100.00;61273.97;5015176;28;20078;-66
2024/03/03 09:27:25;;;;;;;11.32;7.07;;;;;;;-145.63;100.00;61273.97;5009893;28;20042;-65
2024/03/03 09:29:52;;;;;;;14.20;7.38;;;;;;;-145.63;100.00;61273.97;5012134;28;20034;-67
2024/03/03 09:32:18;;;;;;;10.68;7.00;;;;;;;-145.63;100.00;61273.97;5012455;28;20497;-65
2024/03/03 09:34:44;;;;;;;15.02;7.40;;;;;;;-145.63;100.00;61273.97;5007368;28;20038;-66
2024/03/03 09:37:12;;;;;;;13.45;6.25;;;;;;;-145.63;100.00;61273.97;5004055;28;20046;-65
2024/03/03 09:39:37;;;;;;;10.32;6.13;;;;;;;-145.63;100.00;61273.97;5011538;28;20463;-66
2024/03/03 09:42:03;;;;;;;10.90;6.30;;;;;;;-145.63;100.00;61273.97;5013834;28;20030;-65
2024/03/03 09:44:43;;;;;;;10.80;6.45;;;;;;;-145.63;100.00;61273.97;5014086;28;20030;-65
2024/03/03 09:47:12;;;;;;;9.82;6.35;;;;;;;-145.63;100.00;61273.97;5013855;28;20487;-65
2024/03/03 09:49:45;;;;;;;10.18;6.43;;;;;;;-145.63;100.00;61273.97;5006443;28;20365;-65
2024/03/03 09:52:14;;;;;;;7.75;5.90;;;;;;;-145.63;100.00;61273.97;5014681;28;20402;-66
2024/03/03 09:54:43;;;;;;;12.93;6.07;;;;;;;-145.63;100.00;61273.97;5013462;28;20064;-65
2024/03/03 09:57:12;;;;;;;13.80;6.18;;;;;;;-145.63;100.00;61273.97;5013333;28;20034;-65
2024/03/03 09:59:39;;;;;;;9.35;6.30;;;;;;;-145.63;100.00;61273.97;5013975;28;20057;-65
2024/03/03 10:02:11;;;;;;;11.95;6.75;;;;;;;-145.63;100.00;61273.97;5013892;28;20042;-65
2024/03/03 10:04:40;;;;;;;12.98;6.18;;;;;;;-145.63;100.00;61273.97;5012753;28;20061;-64
2024/03/03 10:07:08;;;;;;;14.05;5.75;;;;;;;-145.63;100.00;61273.97;5020802;28;20453;-64
2024/03/03 10:09:34;;;;;;;10.40;6.05;;;;;;;-145.63;100.00;61273.97;5018749;28;20056;-66
2024/03/03 10:12:05;;;;;;;11.75;5.85;;;;;;;-145.63;100.00;61273.97;5013545;28;20026;-65
2024/03/03 10:14:32;;;;;;;7.40;4.70;;;;;;;-145.63;100.00;61273.97;5010074;28;20475;-64
2024/03/03 10:16:58;;;;;;;11.18;5.05;;;;;;;-145.63;100.00;61273.97;5011548;28;20048;-65
2024/03/03 10:19:26;;;;;;;10.13;5.40;;;;;;;-145.63;100.00;61273.97;5013510;28;20026;-65
2024/03/03 10:21:56;;;;;;;10.80;5.55;;;;;;;-145.63;100.00;61273.97;5019670;28;20030;-65
2024/03/03 10:24:26;;;;;;;11.48;5.80;;;;;;;-145.63;100.00;61273.97;5022373;28;20025;-65
2024/03/03 10:26:56;;;;;;;14.40;6.63;;;;;;;-145.63;100.00;61273.97;5006614;28;20038;-64
2024/03/03 10:29:26;;;;;;;10.38;5.68;;;;;;;-145.63;100.00;61273.97;5013491;28;20104;-66
2024/03/03 10:31:55;;;;;;;7.95;5.18;;;;;;;-145.63;100.00;61273.97;5017237;28;20038;-66
2024/03/03 10:34:21;;;;;;;8.95;5.63;;;;;;;-145.63;100.00;61273.97;5009714;28;20149;-64
2024/03/03 10:36:48;;;;;;;8.15;5.10;;;;;;;-145.63;100.00;61273.97;5013847;28;20124;-64
2024/03/03 10:39:15;;;;;;;9.05;5.15;;;;;;;-145.63;100.00;61273.97;5013032;28;20030;-64
2024/03/03 10:41:41;;;;;;;8.70;5.10;;;;;;;-145.63;100.00;61273.97;5013055;28;20073;-63
2024/03/03 10:44:08;;;;;;;6.60;5.30;;;;;;;-145.63;100.00;61273.97;5011770;28;20065;-66
2024/03/03 10:46:35;;;;;;;7.10;5.03;;;;;;;-145.63;100.00;61273.97;5013638;28;20042;-69
2024/03/03 10:49:01;;;;;;;6.13;4.68;;;;;;;-145.63;100.00;61273.97;5012670;28;20026;-65
2024/03/03 10:51:27;;;;;;;6.25;4.38;;;;;;;-145.63;100.00;61273.97;5011555;28;20538;-65
2024/03/03 10:53:57;;;;;;;7.85;4.93;;;;;;;-145.63;100.00;61273.97;5012089;28;20122;-64
2024/03/03 10:56:23;;;;;;;9.82;4.75;;;;;;;-145.63;100.00;61273.97;5011855;28;20144;-64